Time;durP1;ratioP1;P1;durP2;ratioP2;P2;SDS_P1;SDS_P2;PMS_P1;PMS_P2;Temp;Humidity;BMP_temperature;BMP_pressure;BME280_temperature;BME280_humidity;BME280_pressure;Samples;Min_cycle;Max_cycle;Signal;HPM_P1;HPM_P2
2022/01/06 00:00:57;;;;;;;0.10;0.10;;;;;;;;;;4815862;29;20151;-90
2022/01/06 00:03:23;;;;;;;0.10;0.10;;;;;;;;;;4830596;29;20045;-90
2022/01/06 00:05:49;;;;;;;0.00;0.00;;;;;;;;;;4830396;29;20049;-90
2022/01/06 00:08:15;;;;;;;0.10;0.10;;;;;;;;;;4830416;29;20490;-91
2022/01/06 00:10:41;;;;;;;0.08;0.08;;;;;;;;;;4830278;29;20128;-91
2022/01/06 00:13:12;;;;;;;0.05;0.05;;;;;;;;;;4814621;29;20049;-91
2022/01/06 00:15:58;;;;;;;0.00;0.00;;;;;;;;;;4816185;29;20057;-91
2022/01/06 00:23:03;;;;;;;0.10;0.10;;;;;;;;;;4817719;29;20096;-90
2022/01/06 00:24:03;;;;;;;0.10;0.10;;;;;;;;;;4832712;29;20152;-90
2022/01/06 00:26:29;;;;;;;0.00;0.00;;;;;;;;;;4814909;29;20208;-89
2022/01/06 00:28:55;;;;;;;0.00;0.00;;;;;;;;;;4830040;29;20045;-90
2022/01/06 00:31:21;;;;;;;0.00;0.00;;;;;;;;;;4814920;29;20052;-90
2022/01/06 00:33:47;;;;;;;0.10;0.10;;;;;;;;;;4829817;29;20041;-89
2022/01/06 00:36:13;;;;;;;0.10;0.10;;;;;;;;;;4815084;29;20041;-90
2022/01/06 00:38:39;;;;;;;0.10;0.10;;;;;;;;;;4815122;29;20186;-91
2022/01/06 00:41:05;;;;;;;0.10;0.10;;;;;;;;;;4845464;29;20093;-91
2022/01/06 00:43:31;;;;;;;0.10;0.10;;;;;;;;;;4829891;29;20217;-91
2022/01/06 00:45:57;;;;;;;0.10;0.10;;;;;;;;;;4814795;29;20136;-90
2022/01/06 00:48:23;;;;;;;1.25;0.30;;;;;;;;;;4814710;29;20068;-91
2022/01/06 00:50:49;;;;;;;0.10;0.10;;;;;;;;;;4814895;29;20049;-91
2022/01/06 00:53:15;;;;;;;0.10;0.10;;;;;;;;;;4815001;29;20128;-91
2022/01/06 00:55:41;;;;;;;0.10;0.10;;;;;;;;;;4829841;29;20409;-90
2022/01/06 00:58:07;;;;;;;0.10;0.10;;;;;;;;;;4829606;29;20039;-91
2022/01/06 01:00:40;;;;;;;0.10;0.10;;;;;;;;;;4830092;29;20084;-91
2022/01/06 01:03:12;;;;;;;0.10;0.10;;;;;;;;;;4830684;29;20049;-91
2022/01/06 01:05:41;;;;;;;0.10;0.10;;;;;;;;;;4814455;29;20049;-90
2022/01/06 01:08:07;;;;;;;0.10;0.10;;;;;;;;;;4814491;29;20049;-90
2022/01/06 01:10:33;;;;;;;0.10;0.10;;;;;;;;;;4814812;29;20045;-91
2022/01/06 01:13:00;;;;;;;0.10;0.10;;;;;;;;;;4814658;29;20086;-90
2022/01/06 01:15:27;;;;;;;0.10;0.10;;;;;;;;;;4814499;29;20045;-93
2022/01/06 01:17:53;;;;;;;0.00;0.00;;;;;;;;;;4830184;29;20046;-92
2022/01/06 01:20:19;;;;;;;0.10;0.10;;;;;;;;;;4814447;29;20046;-91
2022/01/06 01:22:45;;;;;;;0.10;0.10;;;;;;;;;;4814361;29;20229;-92
2022/01/06 01:25:14;;;;;;;0.10;0.10;;;;;;;;;;4814019;29;20041;-91
2022/01/06 01:27:42;;;;;;;0.10;0.10;;;;;;;;;;4815205;29;20137;-91
2022/01/06 01:30:11;;;;;;;0.10;0.10;;;;;;;;;;4814813;29;20052;-92
2022/01/06 01:32:38;;;;;;;0.10;0.10;;;;;;;;;;4814761;29;20498;-91
2022/01/06 01:35:06;;;;;;;0.10;0.10;;;;;;;;;;4829499;29;20379;-92
2022/01/06 01:37:32;;;;;;;0.10;0.10;;;;;;;;;;4814380;29;20037;-91
2022/01/06 01:39:58;;;;;;;0.10;0.10;;;;;;;;;;4814631;29;20103;-91
2022/01/06 01:42:24;;;;;;;0.10;0.10;;;;;;;;;;4814471;29;20439;-92
2022/01/06 01:44:51;;;;;;;0.10;0.10;;;;;;;;;;4829595;29;20041;-92
2022/01/06 01:47:27;;;;;;;0.10;0.10;;;;;;;;;;4829494;29;20053;-92
2022/01/06 01:49:58;;;;;;;0.00;0.00;;;;;;;;;;4815601;29;20065;-92
2022/01/06 01:52:24;;;;;;;0.00;0.00;;;;;;;;;;4814452;29;20046;-91
2022/01/06 01:54:50;;;;;;;0.10;0.10;;;;;;;;;;4829192;29;20058;-91
2022/01/06 01:57:16;;;;;;;0.00;0.00;;;;;;;;;;4814545;29;20447;-91
2022/01/06 01:59:42;;;;;;;0.10;0.10;;;;;;;;;;4829471;29;20124;-92
2022/01/06 02:02:08;;;;;;;0.10;0.10;;;;;;;;;;4813961;29;20061;-91
2022/01/06 02:04:34;;;;;;;0.00;0.00;;;;;;;;;;4813853;29;20053;-91
2022/01/06 02:07:00;;;;;;;0.10;0.10;;;;;;;;;;4829088;29;20052;-90
2022/01/06 02:09:26;;;;;;;0.10;0.10;;;;;;;;;;4828824;29;20041;-90
2022/01/06 02:11:53;;;;;;;0.10;0.10;;;;;;;;;;4829000;29;20168;-90
2022/01/06 02:14:19;;;;;;;0.10;0.10;;;;;;;;;;4828536;29;20056;-89
2022/01/06 02:16:45;;;;;;;0.10;0.10;;;;;;;;;;4828717;29;20045;-89
2022/01/06 02:19:11;;;;;;;0.10;0.10;;;;;;;;;;4843490;29;20490;-90
2022/01/06 02:21:41;;;;;;;0.10;0.10;;;;;;;;;;4828189;29;20041;-90
2022/01/06 02:24:07;;;;;;;0.10;0.10;;;;;;;;;;4813208;29;20041;-90
2022/01/06 02:26:33;;;;;;;0.10;0.10;;;;;;;;;;4843399;29;20041;-90
2022/01/06 02:28:58;;;;;;;0.10;0.10;;;;;;;;;;4813361;29;20045;-90
2022/01/06 02:31:25;;;;;;;0.10;0.10;;;;;;;;;;4843266;29;20041;-89
2022/01/06 02:33:51;;;;;;;0.10;0.10;;;;;;;;;;4828128;29;20056;-91
2022/01/06 02:36:17;;;;;;;0.10;0.10;;;;;;;;;;4814324;29;20045;-90
2022/01/06 02:38:43;;;;;;;0.10;0.10;;;;;;;;;;4834691;29;20386;-91
2022/01/06 02:41:09;;;;;;;0.10;0.10;;;;;;;;;;4819400;29;20045;-91
2022/01/06 02:43:35;;;;;;;0.10;0.10;;;;;;;;;;4849432;29;20128;-91
2022/01/06 02:46:01;;;;;;;0.03;0.03;;;;;;;;;;4834513;29;20536;-90
2022/01/06 02:48:27;;;;;;;0.05;0.05;;;;;;;;;;4819086;29;20357;-90
2022/01/06 02:50:53;;;;;;;0.10;0.10;;;;;;;;;;4834436;29;20261;-91
2022/01/06 02:53:19;;;;;;;0.08;0.08;;;;;;;;;;4819067;29;20069;-91
2022/01/06 02:55:50;;;;;;;0.00;0.00;;;;;;;;;;4834595;29;20624;-91
2022/01/06 02:58:17;;;;;;;0.00;0.00;;;;;;;;;;4819670;29;20077;-91
2022/01/06 03:00:43;;;;;;;0.10;0.10;;;;;;;;;;4834347;29;20042;-91
2022/01/06 03:03:09;;;;;;;0.10;0.10;;;;;;;;;;4818914;29;20132;-90
2022/01/06 03:05:35;;;;;;;0.10;0.10;;;;;;;;;;4834161;29;20088;-91
2022/01/06 03:08:01;;;;;;;0.15;0.15;;;;;;;;;;4819366;29;20046;-91
2022/01/06 03:10:27;;;;;;;0.10;0.10;;;;;;;;;;4819482;29;20184;-92
2022/01/06 03:12:53;;;;;;;0.00;0.00;;;;;;;;;;4819866;29;20045;-92
2022/01/06 03:15:20;;;;;;;0.00;0.00;;;;;;;;;;4834350;29;20078;-90
2022/01/06 03:17:47;;;;;;;0.10;0.10;;;;;;;;;;4833924;29;20125;-90
2022/01/06 03:20:13;;;;;;;0.10;0.10;;;;;;;;;;4818726;29;20493;-91
2022/01/06 03:22:39;;;;;;;0.10;0.10;;;;;;;;;;4834065;29;20045;-90
2022/01/06 03:25:06;;;;;;;0.00;0.00;;;;;;;;;;4819117;29;20089;-91
2022/01/06 03:27:32;;;;;;;0.10;0.10;;;;;;;;;;4834381;29;20056;-90
2022/01/06 03:29:58;;;;;;;0.10;0.10;;;;;;;;;;4819041;29;20060;-90
2022/01/06 03:32:24;;;;;;;0.10;0.10;;;;;;;;;;4833819;29;20382;-89
2022/01/06 03:34:50;;;;;;;0.10;0.10;;;;;;;;;;4833833;29;20041;-91
2022/01/06 03:37:17;;;;;;;0.10;0.10;;;;;;;;;;4833912;29;20037;-90
2022/01/06 03:39:43;;;;;;;0.10;0.10;;;;;;;;;;4834049;29;20045;-91
2022/01/06 03:42:09;;;;;;;0.10;0.10;;;;;;;;;;4818577;29;20045;-92
2022/01/06 03:44:35;;;;;;;0.00;0.00;;;;;;;;;;4819088;29;20151;-92
2022/01/06 03:47:01;;;;;;;0.10;0.10;;;;;;;;;;4834238;29;20057;-91
2022/01/06 03:49:27;;;;;;;0.10;0.10;;;;;;;;;;4830885;29;20441;-90
2022/01/06 03:51:53;;;;;;;0.10;0.10;;;;;;;;;;4830930;29;20052;-90
2022/01/06 03:54:19;;;;;;;0.10;0.10;;;;;;;;;;4815884;29;20125;-90
2022/01/06 03:56:48;;;;;;;0.10;0.10;;;;;;;;;;4815620;29;20042;-91
2022/01/06 03:59:14;;;;;;;0.10;0.10;;;;;;;;;;4815797;29;20097;-90
2022/01/06 04:01:40;;;;;;;0.10;0.10;;;;;;;;;;4830407;29;20174;-90
2022/01/06 04:04:06;;;;;;;0.10;0.10;;;;;;;;;;4815917;29;20093;-91
2022/01/06 04:06:32;;;;;;;0.10;0.10;;;;;;;;;;4830449;29;20054;-91
2022/01/06 04:08:58;;;;;;;0.10;0.10;;;;;;;;;;4816007;29;20033;-91
2022/01/06 04:11:24;;;;;;;0.10;0.10;;;;;;;;;;4815923;29;20048;-91
2022/01/06 04:13:50;;;;;;;0.10;0.10;;;;;;;;;;4815656;29;20446;-91
2022/01/06 04:16:17;;;;;;;0.10;0.10;;;;;;;;;;4830315;29;20057;-91
2022/01/06 04:18:43;;;;;;;0.10;0.10;;;;;;;;;;4815376;29;20094;-91
2022/01/06 04:21:09;;;;;;;0.10;0.10;;;;;;;;;;4830899;29;20041;-92
2022/01/06 04:23:35;;;;;;;0.00;0.00;;;;;;;;;;4830632;29;20046;-92
2022/01/06 04:26:01;;;;;;;0.10;0.10;;;;;;;;;;4815613;29;20056;-91
2022/01/06 04:28:27;;;;;;;0.10;0.10;;;;;;;;;;4815297;29;20045;-91
2022/01/06 04:30:53;;;;;;;0.00;0.00;;;;;;;;;;4815527;29;20149;-91
2022/01/06 04:33:19;;;;;;;0.10;0.10;;;;;;;;;;4830457;29;20041;-91
2022/01/06 04:35:45;;;;;;;0.10;0.10;;;;;;;;;;4830685;29;20095;-92
2022/01/06 04:38:11;;;;;;;0.10;0.10;;;;;;;;;;4815267;29;20084;-92
2022/01/06 04:40:37;;;;;;;0.10;0.10;;;;;;;;;;4815296;29;20439;-91
2022/01/06 04:43:03;;;;;;;0.10;0.10;;;;;;;;;;4815008;29;20194;-91
2022/01/06 04:45:29;;;;;;;0.10;0.10;;;;;;;;;;4830909;29;20056;-92
2022/01/06 04:47:55;;;;;;;0.10;0.10;;;;;;;;;;4845177;29;20101;-90
2022/01/06 04:50:21;;;;;;;0.10;0.10;;;;;;;;;;4814809;29;20045;-90
2022/01/06 04:52:47;;;;;;;0.10;0.10;;;;;;;;;;4829918;29;20480;-90
2022/01/06 04:55:12;;;;;;;0.10;0.10;;;;;;;;;;4844657;29;20057;-90
2022/01/06 04:57:38;;;;;;;0.10;0.10;;;;;;;;;;4829544;29;20085;-90
2022/01/06 05:00:06;;;;;;;0.10;0.10;;;;;;;;;;4828602;29;20110;-89
2022/01/06 05:02:32;;;;;;;0.10;0.10;;;;;;;;;;4829751;29;20436;-90
2022/01/06 05:04:58;;;;;;;0.10;0.10;;;;;;;;;;4814502;29;20053;-90
2022/01/06 05:07:24;;;;;;;0.10;0.10;;;;;;;;;;4814378;29;20048;-90
2022/01/06 05:09:50;;;;;;;0.10;0.10;;;;;;;;;;4845241;29;20067;-89
2022/01/06 05:12:16;;;;;;;0.10;0.10;;;;;;;;;;4814758;29;20046;-90
2022/01/06 05:14:42;;;;;;;0.10;0.10;;;;;;;;;;4829031;29;20041;-90
2022/01/06 05:17:08;;;;;;;0.10;0.10;;;;;;;;;;4829202;29;20104;-90
2022/01/06 05:19:34;;;;;;;0.10;0.10;;;;;;;;;;4844683;29;20454;-91
2022/01/06 05:22:00;;;;;;;0.10;0.10;;;;;;;;;;4814367;29;20046;-90
2022/01/06 05:24:26;;;;;;;0.10;0.10;;;;;;;;;;4829710;29;20046;-91
2022/01/06 05:26:55;;;;;;;0.10;0.10;;;;;;;;;;4829431;29;20151;-91
2022/01/06 05:29:21;;;;;;;0.10;0.10;;;;;;;;;;4814452;29;20054;-90
2022/01/06 05:31:47;;;;;;;0.10;0.10;;;;;;;;;;4814373;29;20427;-91
2022/01/06 05:34:13;;;;;;;0.10;0.10;;;;;;;;;;4844546;29;20083;-91
2022/01/06 05:36:39;;;;;;;0.10;0.10;;;;;;;;;;4814466;29;20037;-91
2022/01/06 05:39:05;;;;;;;0.10;0.10;;;;;;;;;;4814647;29;20102;-91
2022/01/06 05:41:31;;;;;;;0.10;0.10;;;;;;;;;;4829336;29;20041;-91
2022/01/06 05:43:57;;;;;;;0.10;0.10;;;;;;;;;;4814539;29;20045;-90
2022/01/06 05:46:23;;;;;;;0.10;0.10;;;;;;;;;;4814478;29;20519;-92
2022/01/06 05:48:49;;;;;;;0.10;0.10;;;;;;;;;;4814224;29;20049;-91
2022/01/06 05:51:15;;;;;;;0.10;0.10;;;;;;;;;;4814255;29;20046;-91
2022/01/06 05:53:41;;;;;;;0.10;0.10;;;;;;;;;;4829141;29;20061;-92
2022/01/06 05:56:07;;;;;;;0.10;0.10;;;;;;;;;;4829186;29;20056;-92
2022/01/06 05:58:33;;;;;;;0.10;0.10;;;;;;;;;;4814400;29;20091;-91
2022/01/06 06:00:59;;;;;;;0.10;0.10;;;;;;;;;;4829280;29;20088;-90
2022/01/06 06:03:27;;;;;;;0.10;0.10;;;;;;;;;;4813151;29;20081;-90
2022/01/06 06:05:54;;;;;;;0.10;0.10;;;;;;;;;;4799425;29;20187;-88
2022/01/06 06:08:20;;;;;;;0.10;0.10;;;;;;;;;;4803525;29;20045;-93
2022/01/06 06:10:46;;;;;;;0.10;0.10;;;;;;;;;;4813346;29;20065;-90
2022/01/06 06:13:12;;;;;;;0.10;0.10;;;;;;;;;;4799950;29;20419;-89
2022/01/06 06:15:37;;;;;;;0.10;0.10;;;;;;;;;;4809866;29;20096;-89
2022/01/06 06:18:04;;;;;;;0.10;0.10;;;;;;;;;;4825062;29;20042;-88
2022/01/06 06:20:30;;;;;;;0.10;0.10;;;;;;;;;;4794754;29;20046;-89
2022/01/06 06:22:56;;;;;;;0.10;0.10;;;;;;;;;;4811217;29;20053;-89
2022/01/06 06:25:22;;;;;;;0.10;0.10;;;;;;;;;;4828599;29;20053;-89
2022/01/06 06:27:48;;;;;;;0.10;0.10;;;;;;;;;;4812909;29;20072;-89
2022/01/06 06:30:14;;;;;;;0.10;0.10;;;;;;;;;;4828233;29;20132;-88
2022/01/06 06:32:40;;;;;;;0.10;0.10;;;;;;;;;;4827533;29;20060;-89
2022/01/06 06:35:06;;;;;;;0.03;0.03;;;;;;;;;;4827994;29;20053;-89
2022/01/06 06:37:32;;;;;;;0.10;0.10;;;;;;;;;;4812607;29;20059;-89
2022/01/06 06:39:58;;;;;;;0.10;0.10;;;;;;;;;;4828244;29;20137;-89
2022/01/06 06:42:24;;;;;;;0.10;0.10;;;;;;;;;;4812883;29;20109;-89
2022/01/06 06:44:50;;;;;;;0.10;0.10;;;;;;;;;;4828057;29;20053;-90
2022/01/06 06:47:16;;;;;;;0.10;0.10;;;;;;;;;;4812918;29;20076;-89
2022/01/06 06:49:42;;;;;;;0.10;0.10;;;;;;;;;;4828556;29;20544;-91
2022/01/06 06:52:08;;;;;;;0.10;0.10;;;;;;;;;;4801948;29;20188;-89
2022/01/06 06:54:34;;;;;;;0.10;0.10;;;;;;;;;;4809240;29;20149;-89
2022/01/06 06:57:00;;;;;;;0.10;0.10;;;;;;;;;;4795129;29;20141;-90
2022/01/06 06:59:26;;;;;;;0.10;0.10;;;;;;;;;;4828266;29;20573;-90
2022/01/06 07:01:52;;;;;;;0.10;0.10;;;;;;;;;;4828317;29;20065;-90
2022/01/06 07:04:18;;;;;;;0.10;0.10;;;;;;;;;;4827996;29;20075;-90
2022/01/06 07:06:44;;;;;;;0.10;0.10;;;;;;;;;;4812947;29;20077;-90
2022/01/06 07:09:10;;;;;;;0.10;0.10;;;;;;;;;;4812664;29;20431;-89
2022/01/06 07:11:36;;;;;;;0.10;0.10;;;;;;;;;;4817377;29;20049;-89
2022/01/06 07:14:02;;;;;;;0.10;0.10;;;;;;;;;;4809100;29;20247;-90
2022/01/06 07:16:28;;;;;;;0.10;0.10;;;;;;;;;;4792001;29;20591;-90
2022/01/06 07:18:54;;;;;;;0.10;0.10;;;;;;;;;;4809402;29;20128;-90
2022/01/06 07:21:20;;;;;;;0.10;0.10;;;;;;;;;;4809275;29;20057;-90
2022/01/06 07:23:46;;;;;;;0.10;0.10;;;;;;;;;;4795435;29;20074;-90
2022/01/06 07:26:12;;;;;;;0.10;0.10;;;;;;;;;;4797779;29;20060;-89
2022/01/06 07:28:38;;;;;;;0.10;0.10;;;;;;;;;;4812934;29;20045;-89
2022/01/06 07:31:04;;;;;;;0.10;0.10;;;;;;;;;;4797817;29;20056;-90
2022/01/06 07:33:31;;;;;;;0.10;0.10;;;;;;;;;;4813168;29;20410;-90
2022/01/06 07:35:57;;;;;;;0.10;0.10;;;;;;;;;;4797579;29;20049;-90
2022/01/06 07:38:23;;;;;;;0.10;0.10;;;;;;;;;;4798376;29;20470;-86
2022/01/06 07:40:49;;;;;;;0.10;0.10;;;;;;;;;;4797485;29;20046;-89
2022/01/06 07:43:15;;;;;;;0.10;0.10;;;;;;;;;;4812442;29;20109;-88
2022/01/06 07:45:41;;;;;;;0.10;0.10;;;;;;;;;;4827461;29;20046;-84
2022/01/06 07:48:17;;;;;;;0.10;0.10;;;;;;;;;;4827466;29;20140;-86
2022/01/06 07:50:43;;;;;;;0.10;0.10;;;;;;;;;;4813583;29;20054;-85
2022/01/06 07:53:09;;;;;;;0.10;0.10;;;;;;;;;;4812673;29;20049;-87
2022/01/06 07:55:35;;;;;;;0.10;0.10;;;;;;;;;;4812618;29;20415;-86
2022/01/06 07:58:01;;;;;;;0.10;0.10;;;;;;;;;;4827442;29;20478;-89
2022/01/06 08:00:27;;;;;;;0.10;0.10;;;;;;;;;;4812180;29;20046;-88
2022/01/06 08:02:53;;;;;;;0.10;0.10;;;;;;;;;;4812045;29;20046;-87
2022/01/06 08:05:22;;;;;;;0.10;0.10;;;;;;;;;;4797239;29;20375;-87
2022/01/06 08:07:48;;;;;;;0.10;0.10;;;;;;;;;;4812659;29;20053;-87
2022/01/06 08:10:14;;;;;;;0.10;0.10;;;;;;;;;;4812218;29;20474;-89
2022/01/06 08:12:40;;;;;;;0.10;0.10;;;;;;;;;;4812066;29;20050;-87
2022/01/06 08:15:06;;;;;;;0.10;0.10;;;;;;;;;;4812067;29;20056;-87
2022/01/06 08:17:32;;;;;;;0.10;0.10;;;;;;;;;;4811903;29;20046;-86
2022/01/06 08:19:58;;;;;;;0.00;0.00;;;;;;;;;;4811725;29;20092;-86
2022/01/06 08:22:24;;;;;;;0.10;0.10;;;;;;;;;;4811905;29;20078;-86
2022/01/06 08:24:52;;;;;;;0.10;0.10;;;;;;;;;;4797082;29;20049;-86
2022/01/06 08:27:18;;;;;;;0.10;0.10;;;;;;;;;;4796915;29;20054;-87
2022/01/06 08:29:44;;;;;;;0.10;0.10;;;;;;;;;;4826026;29;20077;-85
2022/01/06 08:32:10;;;;;;;0.10;0.10;;;;;;;;;;4826518;29;20061;-85
2022/01/06 08:34:36;;;;;;;0.10;0.10;;;;;;;;;;4826398;29;20129;-90
2022/01/06 08:37:02;;;;;;;0.10;0.10;;;;;;;;;;4796757;29;20438;-86
2022/01/06 08:39:28;;;;;;;0.10;0.10;;;;;;;;;;4808069;29;20046;-91
2022/01/06 08:41:54;;;;;;;0.10;0.10;;;;;;;;;;4793993;29;20069;-90
2022/01/06 08:44:21;;;;;;;0.03;0.03;;;;;;;;;;4810565;29;20034;-88
2022/01/06 08:46:47;;;;;;;0.10;0.10;;;;;;;;;;4787624;29;20046;-87
2022/01/06 08:49:14;;;;;;;0.10;0.10;;;;;;;;;;4820877;29;20078;-87
2022/01/06 08:51:40;;;;;;;0.10;0.10;;;;;;;;;;4797824;29;20046;-87
2022/01/06 08:54:06;;;;;;;0.10;0.10;;;;;;;;;;4793416;29;20127;-88
2022/01/06 08:56:33;;;;;;;0.10;0.10;;;;;;;;;;4782277;29;20519;-87
2022/01/06 08:58:59;;;;;;;0.10;0.10;;;;;;;;;;4770045;29;20034;-87
2022/01/06 09:01:25;;;;;;;0.10;0.10;;;;;;;;;;4769619;29;20108;-87
2022/01/06 09:03:51;;;;;;;0.10;0.10;;;;;;;;;;4773493;29;20092;-86
2022/01/06 09:06:17;;;;;;;0.10;0.10;;;;;;;;;;4786940;29;20046;-86
2022/01/06 09:08:43;;;;;;;0.10;0.10;;;;;;;;;;4797254;29;20388;-85
2022/01/06 09:11:09;;;;;;;0.10;0.10;;;;;;;;;;4798719;29;20043;-85
2022/01/06 09:13:35;;;;;;;0.10;0.10;;;;;;;;;;4767805;29;20564;-85
2022/01/06 09:16:01;;;;;;;0.10;0.10;;;;;;;;;;4783905;29;20510;-86
2022/01/06 09:18:27;;;;;;;0.10;0.10;;;;;;;;;;4798629;29;20352;-87
2022/01/06 09:20:53;;;;;;;0.10;0.10;;;;;;;;;;4782473;29;20043;-87
2022/01/06 09:23:19;;;;;;;0.10;0.10;;;;;;;;;;4802463;29;20483;-88
2022/01/06 09:25:45;;;;;;;0.10;0.10;;;;;;;;;;4783192;29;20125;-87
2022/01/06 09:28:11;;;;;;;0.10;0.10;;;;;;;;;;4783789;29;20510;-87
2022/01/06 09:30:38;;;;;;;0.10;0.10;;;;;;;;;;4797210;29;20124;-87
2022/01/06 09:33:04;;;;;;;0.00;0.00;;;;;;;;;;4783175;29;20082;-87
2022/01/06 09:35:30;;;;;;;0.10;0.10;;;;;;;;;;4798522;29;20115;-90
2022/01/06 09:37:56;;;;;;;0.10;0.10;;;;;;;;;;4782289;29;20039;-90
2022/01/06 09:40:22;;;;;;;0.00;0.00;;;;;;;;;;4772677;29;20050;-90
2022/01/06 09:42:48;;;;;;;0.10;0.10;;;;;;;;;;4769734;29;20480;-90
2022/01/06 09:45:15;;;;;;;0.00;0.00;;;;;;;;;;4767244;29;20129;-90
2022/01/06 09:47:41;;;;;;;0.00;0.00;;;;;;;;;;4768644;29;20094;-88
2022/01/06 09:50:08;;;;;;;0.08;0.08;;;;;;;;;;4768226;29;20220;-88
2022/01/06 09:52:34;;;;;;;0.00;0.00;;;;;;;;;;4781816;29;20050;-87
2022/01/06 09:55:03;;;;;;;0.10;0.10;;;;;;;;;;4813347;29;20054;-91
2022/01/06 09:57:29;;;;;;;0.10;0.10;;;;;;;;;;4787593;29;20069;-88
2022/01/06 09:59:55;;;;;;;0.10;0.10;;;;;;;;;;4800245;29;20091;-89
2022/01/06 10:02:21;;;;;;;0.10;0.10;;;;;;;;;;4786128;29;20041;-89
2022/01/06 10:04:57;;;;;;;0.00;0.00;;;;;;;;;;4801057;29;20504;-85
2022/01/06 10:07:23;;;;;;;0.10;0.10;;;;;;;;;;4801559;29;20117;-92
2022/01/06 10:09:49;;;;;;;0.00;0.00;;;;;;;;;;4786512;29;20083;-92
2022/01/06 10:12:15;;;;;;;0.10;0.10;;;;;;;;;;4787196;29;20054;-91
2022/01/06 10:14:46;;;;;;;0.10;0.10;;;;;;;;;;4788894;29;20050;-92
2022/01/06 10:17:14;;;;;;;0.10;0.10;;;;;;;;;;4785652;29;20037;-91
2022/01/06 10:19:40;;;;;;;0.10;0.10;;;;;;;;;;4803697;29;20038;-92
2022/01/06 10:22:11;;;;;;;0.00;0.00;;;;;;;;;;4785888;29;20041;-90
2022/01/06 10:24:37;;;;;;;0.00;0.00;;;;;;;;;;4816922;29;20049;-89
2022/01/06 10:27:06;;;;;;;0.00;0.00;;;;;;;;;;4801665;29;20038;-89
2022/01/06 10:29:32;;;;;;;0.00;0.00;;;;;;;;;;4784370;29;20045;-90
2022/01/06 10:32:07;;;;;;;0.00;0.00;;;;;;;;;;4789465;29;20132;-89
2022/01/06 10:34:33;;;;;;;0.00;0.00;;;;;;;;;;4801282;29;20054;-89
2022/01/06 10:37:00;;;;;;;0.00;0.00;;;;;;;;;;4788045;29;20034;-89
2022/01/06 10:39:27;;;;;;;0.00;0.00;;;;;;;;;;4802129;29;20085;-89
2022/01/06 10:41:53;;;;;;;0.00;0.00;;;;;;;;;;4802072;29;20037;-90
2022/01/06 10:44:19;;;;;;;0.00;0.00;;;;;;;;;;4786628;29;20486;-90
2022/01/06 10:46:45;;;;;;;0.00;0.00;;;;;;;;;;4784113;29;20042;-90
2022/01/06 10:49:12;;;;;;;0.00;0.00;;;;;;;;;;4790221;29;20071;-89
2022/01/06 10:51:38;;;;;;;0.00;0.00;;;;;;;;;;4784108;29;20042;-88
2022/01/06 10:54:04;;;;;;;0.00;0.00;;;;;;;;;;4815776;29;20497;-89
2022/01/06 10:56:30;;;;;;;0.00;0.00;;;;;;;;;;4803576;29;20055;-88
2022/01/06 10:58:57;;;;;;;0.00;0.00;;;;;;;;;;4802698;29;20070;-90
2022/01/06 11:01:23;;;;;;;0.00;0.00;;;;;;;;;;4802095;29;20034;-90
2022/01/06 11:03:49;;;;;;;0.10;0.10;;;;;;;;;;4796871;29;20103;-88
2022/01/06 11:06:15;;;;;;;0.00;0.00;;;;;;;;;;4811964;29;20046;-90
2022/01/06 11:08:42;;;;;;;0.00;0.00;;;;;;;;;;4801004;29;20049;-89
2022/01/06 11:13:36;;;;;;;0.10;0.10;;;;;;;;;;4831741;29;20064;-88
2022/01/06 11:16:02;;;;;;;0.20;0.20;;;;;;;;;;4832437;29;20063;-89
2022/01/06 11:18:28;;;;;;;0.00;0.00;;;;;;;;;;4815362;29;20045;-89
2022/01/06 11:21:05;;;;;;;0.00;0.00;;;;;;;;;;4797951;29;20057;-90
2022/01/06 11:23:31;;;;;;;0.10;0.10;;;;;;;;;;4809684;29;20042;-88
2022/01/06 11:26:07;;;;;;;0.10;0.10;;;;;;;;;;4795958;29;20054;-88
2022/01/06 11:28:33;;;;;;;0.10;0.10;;;;;;;;;;4809496;29;20066;-88
2022/01/06 11:31:12;;;;;;;0.10;0.10;;;;;;;;;;4794915;29;20105;-89
2022/01/06 11:33:41;;;;;;;0.00;0.00;;;;;;;;;;4794362;29;20050;-90
2022/01/06 11:36:17;;;;;;;0.10;0.10;;;;;;;;;;4809952;29;20050;-89
2022/01/06 11:38:46;;;;;;;0.10;0.10;;;;;;;;;;4784422;29;20049;-88
2022/01/06 11:41:12;;;;;;;0.10;0.10;;;;;;;;;;4812847;29;20045;-89
2022/01/06 11:43:38;;;;;;;0.00;0.00;;;;;;;;;;4797531;29;20053;-90
2022/01/06 11:46:05;;;;;;;0.10;0.10;;;;;;;;;;4812430;29;20210;-90
2022/01/06 11:48:31;;;;;;;0.00;0.00;;;;;;;;;;4797819;29;20053;-91
2022/01/06 11:50:57;;;;;;;0.08;0.08;;;;;;;;;;4813180;29;20153;-92
2022/01/06 11:53:30;;;;;;;0.10;0.10;;;;;;;;;;4812513;29;20467;-91
2022/01/06 11:55:56;;;;;;;0.00;0.00;;;;;;;;;;4794129;29;20058;-89
2022/01/06 11:58:22;;;;;;;0.10;0.10;;;;;;;;;;4779550;29;20477;-90
2022/01/06 12:00:56;;;;;;;0.10;0.10;;;;;;;;;;4794131;29;20050;-90
2022/01/06 12:03:22;;;;;;;0.10;0.10;;;;;;;;;;4796421;29;20038;-89
2022/01/06 12:05:49;;;;;;;0.00;0.00;;;;;;;;;;4809136;29;20054;-90
2022/01/06 12:08:19;;;;;;;0.10;0.10;;;;;;;;;;4783938;29;20209;-90
2022/01/06 12:10:46;;;;;;;0.10;0.10;;;;;;;;;;4793118;29;20106;-90
2022/01/06 12:13:12;;;;;;;0.10;0.10;;;;;;;;;;4816729;29;20775;-90
2022/01/06 12:15:54;;;;;;;0.10;0.10;;;;;;;;;;4797183;29;20123;-90
2022/01/06 12:18:24;;;;;;;0.10;0.10;;;;;;;;;;4812283;29;20042;-88
2022/01/06 12:20:50;;;;;;;0.10;0.10;;;;;;;;;;4812014;29;20045;-90
2022/01/06 12:23:16;;;;;;;0.10;0.10;;;;;;;;;;4808699;29;20098;-89
2022/01/06 12:25:42;;;;;;;0.10;0.10;;;;;;;;;;4786493;29;20050;-88
2022/01/06 12:28:11;;;;;;;0.00;0.00;;;;;;;;;;4794229;29;20392;-91
2022/01/06 12:30:40;;;;;;;0.10;0.10;;;;;;;;;;4789902;29;20050;-91
2022/01/06 12:33:07;;;;;;;0.10;0.10;;;;;;;;;;4808311;29;20053;-88
2022/01/06 12:35:52;;;;;;;0.10;0.10;;;;;;;;;;4793405;29;20042;-88
2022/01/06 12:38:26;;;;;;;0.10;0.10;;;;;;;;;;4793658;29;20042;-89
2022/01/06 12:40:52;;;;;;;0.10;0.10;;;;;;;;;;4778883;29;20078;-89
2022/01/06 12:43:18;;;;;;;0.10;0.10;;;;;;;;;;4778494;29;20529;-88
2022/01/06 12:45:44;;;;;;;0.00;0.00;;;;;;;;;;4808764;29;20086;-88
2022/01/06 12:48:11;;;;;;;0.10;0.10;;;;;;;;;;4805247;29;20050;-90
2022/01/06 12:50:43;;;;;;;0.10;0.10;;;;;;;;;;4808191;29;20050;-88
2022/01/06 12:53:09;;;;;;;0.10;0.10;;;;;;;;;;4793468;29;20046;-87
2022/01/06 12:55:42;;;;;;;0.10;0.10;;;;;;;;;;4823423;29;20388;-88
2022/01/06 12:58:08;;;;;;;0.10;0.10;;;;;;;;;;4811301;29;20133;-88
2022/01/06 13:00:34;;;;;;;0.10;0.10;;;;;;;;;;4796569;29;20133;-86
2022/01/06 13:03:04;;;;;;;0.70;0.70;;;;;;;;;;4796087;29;20042;-87
2022/01/06 13:05:30;;;;;;;0.10;0.10;;;;;;;;;;4826320;29;20570;-87
2022/01/06 13:08:03;;;;;;;0.10;0.10;;;;;;;;;;4826123;29;20161;-86
2022/01/06 13:10:29;;;;;;;0.10;0.10;;;;;;;;;;4826093;29;20046;-88
2022/01/06 13:13:05;;;;;;;0.10;0.10;;;;;;;;;;4822794;29;20050;-87
2022/01/06 13:15:32;;;;;;;0.10;0.10;;;;;;;;;;4807631;29;20054;-87
2022/01/06 13:17:58;;;;;;;0.10;0.10;;;;;;;;;;4792889;29;20077;-87
2022/01/06 13:20:24;;;;;;;0.20;0.20;;;;;;;;;;4807453;29;20043;-87
2022/01/06 13:25:34;;;;;;;0.10;0.10;;;;;;;;;;4809785;29;20180;-89
2022/01/06 13:28:03;;;;;;;0.10;0.10;;;;;;;;;;4807558;29;20081;-87
2022/01/06 13:30:39;;;;;;;0.10;0.10;;;;;;;;;;4807696;29;20058;-86
2022/01/06 13:33:09;;;;;;;0.10;0.10;;;;;;;;;;4792647;29;20102;-86
2022/01/06 13:35:48;;;;;;;0.00;0.00;;;;;;;;;;4801859;29;20048;-87
2022/01/06 13:38:18;;;;;;;0.10;0.10;;;;;;;;;;4844015;29;20117;-88
2022/01/06 13:40:51;;;;;;;0.10;0.10;;;;;;;;;;4824700;29;20098;-87
2022/01/06 13:43:18;;;;;;;0.00;0.00;;;;;;;;;;4810575;29;20108;-86
2022/01/06 13:45:47;;;;;;;0.10;0.10;;;;;;;;;;4795425;29;20049;-87
2022/01/06 13:51:08;;;;;;;0.10;0.10;;;;;;;;;;4825339;29;20049;-87
2022/01/06 13:53:51;;;;;;;0.05;0.05;;;;;;;;;;4812107;29;20064;-87
2022/01/06 13:56:31;;;;;;;0.00;0.00;;;;;;;;;;4810253;29;20050;-86
2022/01/06 13:58:58;;;;;;;0.10;0.10;;;;;;;;;;4803243;29;20044;-87
2022/01/06 14:01:25;;;;;;;0.10;0.10;;;;;;;;;;4828411;29;20375;-86
2022/01/06 14:03:51;;;;;;;0.10;0.10;;;;;;;;;;4813231;29;20041;-86
2022/01/06 14:06:18;;;;;;;0.10;0.10;;;;;;;;;;4828352;29;20375;-85
2022/01/06 14:08:43;;;;;;;0.10;0.10;;;;;;;;;;4828180;29;20049;-86
2022/01/06 14:11:12;;;;;;;0.10;0.10;;;;;;;;;;4809976;29;20046;-86
2022/01/06 14:13:38;;;;;;;0.10;0.10;;;;;;;;;;4809945;29;20088;-87
2022/01/06 14:16:04;;;;;;;0.10;0.10;;;;;;;;;;4809565;29;20052;-86
2022/01/06 14:18:30;;;;;;;0.10;0.10;;;;;;;;;;4809749;29;20042;-87
2022/01/06 14:20:56;;;;;;;0.00;0.00;;;;;;;;;;4810189;29;20034;-87
2022/01/06 14:23:23;;;;;;;0.10;0.10;;;;;;;;;;4794864;29;20049;-86
2022/01/06 14:25:49;;;;;;;0.10;0.10;;;;;;;;;;4809659;29;20132;-86
2022/01/06 14:28:15;;;;;;;0.10;0.10;;;;;;;;;;4809967;29;20457;-87
2022/01/06 14:30:41;;;;;;;0.10;0.10;;;;;;;;;;4808963;29;20124;-87
2022/01/06 14:33:07;;;;;;;0.10;0.10;;;;;;;;;;4809100;29;20069;-86
2022/01/06 14:35:34;;;;;;;0.10;0.10;;;;;;;;;;4824709;29;20046;-86
2022/01/06 14:38:00;;;;;;;0.10;0.10;;;;;;;;;;4810120;29;20068;-85
2022/01/06 14:40:26;;;;;;;0.10;0.10;;;;;;;;;;4809821;29;20046;-86
2022/01/06 14:42:52;;;;;;;0.10;0.10;;;;;;;;;;4809857;29;20053;-87
2022/01/06 14:45:18;;;;;;;0.10;0.10;;;;;;;;;;4809536;29;20046;-87
2022/01/06 14:47:44;;;;;;;0.10;0.10;;;;;;;;;;4809876;29;20041;-87
2022/01/06 14:50:13;;;;;;;0.00;0.00;;;;;;;;;;4818441;29;20497;-87
2022/01/06 14:52:41;;;;;;;0.00;0.00;;;;;;;;;;4828164;29;20123;-86